createdAt,value
2019-05-09T00:00:33.580Z,980.14
2019-05-09T00:01:33.564Z,980.18
2019-05-09T00:02:33.682Z,980.13
2019-05-09T00:03:33.547Z,980.22
2019-05-09T00:04:33.775Z,980.17
2019-05-09T00:05:33.575Z,980.20
2019-05-09T00:06:34.019Z,980.17
2019-05-09T00:07:33.692Z,980.13
2019-05-09T00:08:34.750Z,980.13
2019-05-09T00:09:33.770Z,980.14
2019-05-09T00:10:39.465Z,980.19
2019-05-09T00:11:35.319Z,980.19
2019-05-09T00:12:33.650Z,980.12
2019-05-09T00:13:34.597Z,980.13
2019-05-09T00:14:34.333Z,980.17
2019-05-09T00:15:34.910Z,980.23
2019-05-09T00:16:34.046Z,980.14
2019-05-09T00:17:34.203Z,980.16
2019-05-09T00:18:34.388Z,980.12
2019-05-09T00:19:34.569Z,980.20
2019-05-09T00:20:34.814Z,980.21
2019-05-09T00:21:34.991Z,980.18
2019-05-09T00:22:35.180Z,980.20
2019-05-09T00:23:35.363Z,980.11
2019-05-09T00:24:35.548Z,980.10
2019-05-09T00:25:35.742Z,980.17
2019-05-09T00:26:35.903Z,980.08
2019-05-09T00:27:36.074Z,980.16
2019-05-09T00:28:36.254Z,980.10
2019-05-09T00:29:36.438Z,980.11
2019-05-09T00:30:36.629Z,980.12
2019-05-09T00:31:36.813Z,980.24
2019-05-09T00:32:36.987Z,980.15
2019-05-09T00:33:37.172Z,980.16
2019-05-09T00:34:37.357Z,980.17
2019-05-09T00:35:37.531Z,980.14
2019-05-09T00:36:37.719Z,980.17
2019-05-09T00:37:37.867Z,980.16
2019-05-09T00:38:38.753Z,980.18
2019-05-09T00:39:38.128Z,980.14
2019-05-09T00:40:51.618Z,980.16
2019-05-09T00:41:38.777Z,980.18
2019-05-09T00:42:38.568Z,980.14
2019-05-09T00:43:38.754Z,980.10
2019-05-09T00:44:38.928Z,980.11
2019-05-09T00:45:39.093Z,980.09
2019-05-09T00:46:39.286Z,980.09
2019-05-09T00:47:40.266Z,980.14
2019-05-09T00:48:39.658Z,980.17
2019-05-09T00:49:39.825Z,980.14
2019-05-09T00:50:40.755Z,980.17
2019-05-09T00:51:40.764Z,980.18
2019-05-09T00:52:40.309Z,980.13
2019-05-09T00:53:40.474Z,980.16
2019-05-09T00:54:40.621Z,980.19
2019-05-09T00:55:40.796Z,980.15
2019-05-09T00:56:40.960Z,980.18
2019-05-09T00:57:41.140Z,980.08
2019-05-09T00:58:41.329Z,980.08
2019-05-09T00:59:41.499Z,980.08
2019-05-09T01:00:43.782Z,980.17
2019-05-09T01:01:43.715Z,980.23
2019-05-09T01:02:43.564Z,980.15
2019-05-09T01:03:43.383Z,980.12
2019-05-09T01:04:43.811Z,980.12
2019-05-09T01:05:44.111Z,980.08
2019-05-09T01:06:43.515Z,980.15
2019-05-09T01:07:44.072Z,980.14
2019-05-09T01:08:44.214Z,980.12
2019-05-09T01:09:44.574Z,980.17
2019-05-09T01:10:43.782Z,980.13
2019-05-09T01:11:44.163Z,980.16
2019-05-09T01:12:45.118Z,980.13
2019-05-09T01:13:44.245Z,980.14
2019-05-09T01:14:44.427Z,980.08
2019-05-09T01:15:44.587Z,980.16
2019-05-09T01:16:44.772Z,980.10
2019-05-09T01:17:44.947Z,979.99
2019-05-09T01:18:45.107Z,979.97
2019-05-09T01:19:45.304Z,980.00
2019-05-09T01:20:45.518Z,980.05
2019-05-09T01:21:45.715Z,980.01
2019-05-09T01:22:45.894Z,980.07
2019-05-09T01:23:46.767Z,980.06
2019-05-09T01:24:46.301Z,980.11
2019-05-09T01:25:46.784Z,980.04
2019-05-09T01:26:47.265Z,980.04
2019-05-09T01:27:46.939Z,980.16
2019-05-09T01:28:47.119Z,980.07
2019-05-09T01:29:48.256Z,980.09
2019-05-09T01:30:48.450Z,980.22
2019-05-09T01:31:47.613Z,980.13
2019-05-09T01:32:47.790Z,980.17
2019-05-09T01:33:48.760Z,980.14
2019-05-09T01:34:48.197Z,980.15
2019-05-09T01:35:48.430Z,980.14
2019-05-09T01:36:48.636Z,980.20
2019-05-09T01:37:48.807Z,980.07
2019-05-09T01:38:48.989Z,980.07
2019-05-09T01:39:49.172Z,980.14
2019-05-09T01:40:49.390Z,980.16
2019-05-09T01:41:49.600Z,980.07
2019-05-09T01:42:50.270Z,980.13
2019-05-09T01:43:49.955Z,980.16
2019-05-09T01:44:50.149Z,980.21
2019-05-09T01:45:50.369Z,980.20
2019-05-09T01:46:53.872Z,980.12
2019-05-09T01:47:50.787Z,980.09
2019-05-09T01:48:50.931Z,980.12
2019-05-09T01:49:53.744Z,980.13
2019-05-09T01:50:51.254Z,980.10
2019-05-09T01:51:53.549Z,980.19
2019-05-09T01:52:53.364Z,980.26
2019-05-09T01:53:53.197Z,980.22
2019-05-09T01:54:54.127Z,980.15
2019-05-09T01:55:53.998Z,980.16
2019-05-09T01:56:53.831Z,980.18
2019-05-09T01:57:53.946Z,980.13
2019-05-09T01:58:54.038Z,980.15
2019-05-09T01:59:54.015Z,980.14
2019-05-09T02:00:54.078Z,980.22
2019-05-09T02:01:54.384Z,980.21
2019-05-09T02:02:54.008Z,980.11
2019-05-09T02:03:54.586Z,980.14
2019-05-09T02:04:54.278Z,980.10
2019-05-09T02:05:53.916Z,980.21
2019-05-09T02:06:54.163Z,980.25
2019-05-09T02:07:54.369Z,980.19
2019-05-09T02:08:54.796Z,980.13
2019-05-09T02:09:54.761Z,980.17
2019-05-09T02:10:54.958Z,980.14
2019-05-09T02:11:55.159Z,980.10
2019-05-09T02:12:55.351Z,980.11
2019-05-09T02:13:55.797Z,980.13
2019-05-09T02:14:55.725Z,980.17
2019-05-09T02:15:55.906Z,980.19
2019-05-09T02:16:56.086Z,980.18
2019-05-09T02:18:01.621Z,980.24
2019-05-09T02:18:58.403Z,980.19
2019-05-09T02:19:56.645Z,980.21
2019-05-09T02:20:56.801Z,980.24
2019-05-09T02:21:56.975Z,980.21
2019-05-09T02:22:57.293Z,980.20
2019-05-09T02:23:57.323Z,980.21
2019-05-09T02:24:57.516Z,980.15
2019-05-09T02:25:57.699Z,980.28
2019-05-09T02:26:57.922Z,980.24
2019-05-09T02:27:58.135Z,980.18
2019-05-09T02:28:58.319Z,980.19
2019-05-09T02:29:58.483Z,980.24
2019-05-09T02:30:59.289Z,980.24
2019-05-09T02:31:58.814Z,980.22
2019-05-09T02:32:58.995Z,980.23
2019-05-09T02:33:59.176Z,980.20
2019-05-09T02:34:59.800Z,980.26
2019-05-09T02:36:02.036Z,980.19
2019-05-09T02:37:00.802Z,980.16
2019-05-09T02:37:59.920Z,980.20
2019-05-09T02:39:00.771Z,980.16
2019-05-09T02:40:01.295Z,980.16
2019-05-09T02:41:00.406Z,980.15
2019-05-09T02:42:08.749Z,980.07
2019-05-09T02:43:02.760Z,980.11
2019-05-09T02:44:00.991Z,980.17
2019-05-09T02:45:01.158Z,980.13
2019-05-09T02:46:01.794Z,980.07
2019-05-09T02:47:01.419Z,980.03
2019-05-09T02:48:01.564Z,980.12
2019-05-09T02:49:01.695Z,980.05
2019-05-09T02:50:02.795Z,980.07
2019-05-09T02:51:02.301Z,980.08
2019-05-09T02:52:02.792Z,980.08
2019-05-09T02:53:02.431Z,980.05
2019-05-09T02:54:03.294Z,980.04
2019-05-09T02:55:02.768Z,980.06
2019-05-09T02:56:02.908Z,980.11
2019-05-09T02:57:03.052Z,980.05
2019-05-09T02:58:03.211Z,980.09
2019-05-09T02:59:03.435Z,980.11
2019-05-09T03:00:03.623Z,980.13
2019-05-09T03:01:03.779Z,980.09
2019-05-09T03:02:03.957Z,980.09
2019-05-09T03:03:04.106Z,980.07
2019-05-09T03:04:04.266Z,980.07
2019-05-09T03:05:04.414Z,980.11
2019-05-09T03:06:04.601Z,980.04
2019-05-09T03:07:04.750Z,980.09
2019-05-09T03:08:04.930Z,980.03
2019-05-09T03:09:08.664Z,980.00
2019-05-09T03:10:05.212Z,979.97
2019-05-09T03:11:05.366Z,980.02
2019-05-09T03:12:22.768Z,979.96
2019-05-09T03:13:09.020Z,979.98
2019-05-09T03:14:09.198Z,979.94
2019-05-09T03:15:09.162Z,980.02
2019-05-09T03:16:08.569Z,979.97
2019-05-09T03:17:08.739Z,979.94
2019-05-09T03:18:08.911Z,979.97
2019-05-09T03:19:09.051Z,979.98
2019-05-09T03:20:09.593Z,979.95
2019-05-09T03:21:09.163Z,979.93
2019-05-09T03:22:08.826Z,979.91
2019-05-09T03:23:09.278Z,979.92
2019-05-09T03:24:09.843Z,979.92
2019-05-09T03:25:09.798Z,979.90
2019-05-09T03:26:09.158Z,979.94
2019-05-09T03:27:09.497Z,979.97
2019-05-09T03:28:09.716Z,979.95
2019-05-09T03:29:10.797Z,979.89
2019-05-09T03:30:11.963Z,979.86
2019-05-09T03:31:10.175Z,979.92
2019-05-09T03:32:09.625Z,979.86
2019-05-09T03:33:10.478Z,979.87
2019-05-09T03:34:10.686Z,979.85
2019-05-09T03:35:09.793Z,979.80
2019-05-09T03:36:10.313Z,979.86
2019-05-09T03:37:10.111Z,979.84
2019-05-09T03:38:10.306Z,979.82
2019-05-09T03:39:10.491Z,979.85
2019-05-09T03:40:10.657Z,979.83
2019-05-09T03:41:10.813Z,979.76
2019-05-09T03:42:10.976Z,979.80
2019-05-09T03:43:11.137Z,979.78
2019-05-09T03:44:11.330Z,979.75
2019-05-09T03:45:11.506Z,979.72
2019-05-09T03:46:11.657Z,979.79
2019-05-09T03:47:11.794Z,979.74
2019-05-09T03:48:11.962Z,979.74
2019-05-09T03:49:12.114Z,979.76
2019-05-09T03:50:12.249Z,979.83
2019-05-09T03:51:12.409Z,979.80
2019-05-09T03:52:12.563Z,979.80
2019-05-09T03:53:12.738Z,979.84
2019-05-09T03:54:12.915Z,979.87
2019-05-09T03:55:13.059Z,979.96
2019-05-09T03:56:14.215Z,979.96
2019-05-09T03:57:13.453Z,979.99
2019-05-09T03:58:13.618Z,979.90
2019-05-09T03:59:13.754Z,979.89
2019-05-09T04:00:13.895Z,979.94
2019-05-09T04:01:14.052Z,979.88
2019-05-09T04:02:14.180Z,979.90
2019-05-09T04:03:14.332Z,979.92
2019-05-09T04:04:14.509Z,979.89
2019-05-09T04:05:14.640Z,979.94
2019-05-09T04:06:14.821Z,979.87
2019-05-09T04:07:14.981Z,979.90
2019-05-09T04:08:15.126Z,979.95
2019-05-09T04:09:17.795Z,979.91
2019-05-09T04:10:17.894Z,979.91
2019-05-09T04:11:15.698Z,979.85
2019-05-09T04:12:18.140Z,979.90
2019-05-09T04:13:18.019Z,979.87
2019-05-09T04:14:17.887Z,979.89
2019-05-09T04:15:19.174Z,979.89
2019-05-09T04:16:17.341Z,979.87
2019-05-09T04:17:18.216Z,979.89
2019-05-09T04:18:17.893Z,979.86
2019-05-09T04:19:17.586Z,979.87
2019-05-09T04:20:18.321Z,979.88
2019-05-09T04:21:17.611Z,979.84
2019-05-09T04:22:18.570Z,979.91
2019-05-09T04:23:18.662Z,979.87
2019-05-09T04:24:18.915Z,979.91
2019-05-09T04:25:18.229Z,979.86
2019-05-09T04:26:19.185Z,979.93
2019-05-09T04:27:18.340Z,979.90
2019-05-09T04:28:18.490Z,979.93
2019-05-09T04:29:18.642Z,979.89
2019-05-09T04:30:18.818Z,979.96
2019-05-09T04:31:18.986Z,979.90
2019-05-09T04:32:19.161Z,980.00
2019-05-09T04:33:19.331Z,979.99
2019-05-09T04:34:19.478Z,980.01
2019-05-09T04:35:19.627Z,980.01
2019-05-09T04:36:19.805Z,979.99
2019-05-09T04:37:19.933Z,979.96
2019-05-09T04:38:20.177Z,979.99
2019-05-09T04:39:23.601Z,980.04
2019-05-09T04:40:21.429Z,980.02
2019-05-09T04:41:23.900Z,980.02
2019-05-09T04:42:21.796Z,979.95
2019-05-09T04:43:34.278Z,979.98
2019-05-09T04:44:23.164Z,979.99
2019-05-09T04:45:21.369Z,979.96
2019-05-09T04:46:24.350Z,980.00
2019-05-09T04:47:22.613Z,979.98
2019-05-09T04:48:24.060Z,979.97
2019-05-09T04:49:23.801Z,979.97
2019-05-09T04:50:24.856Z,980.00
2019-05-09T04:51:23.382Z,979.95
2019-05-09T04:52:22.513Z,979.90
2019-05-09T04:53:22.701Z,979.88
2019-05-09T04:54:22.888Z,979.84
2019-05-09T04:55:23.060Z,979.63
2019-05-09T04:56:23.199Z,979.62
2019-05-09T04:57:23.358Z,979.46
2019-05-09T04:58:23.493Z,979.32
2019-05-09T04:59:23.655Z,979.16
2019-05-09T05:00:23.812Z,979.06
2019-05-09T05:01:23.950Z,978.96
2019-05-09T05:02:24.128Z,978.91
2019-05-09T05:03:24.291Z,978.79
2019-05-09T05:04:25.310Z,978.75
2019-05-09T05:05:24.589Z,978.70
2019-05-09T05:06:24.755Z,978.70
2019-05-09T05:07:24.955Z,978.62
2019-05-09T05:08:25.111Z,978.60
2019-05-09T05:09:27.588Z,978.60
2019-05-09T05:10:27.318Z,978.57
2019-05-09T05:11:27.767Z,978.58
2019-05-09T05:12:27.722Z,978.56
2019-05-09T05:13:27.351Z,978.52
2019-05-09T05:14:28.113Z,978.65
2019-05-09T05:15:27.676Z,978.65
2019-05-09T05:16:27.520Z,978.69
2019-05-09T05:17:30.248Z,978.58
2019-05-09T05:18:28.440Z,978.49
2019-05-09T05:19:31.193Z,978.56
2019-05-09T05:20:28.809Z,978.55
2019-05-09T05:21:28.479Z,978.61
2019-05-09T05:22:28.386Z,978.66
2019-05-09T05:23:28.780Z,978.75
2019-05-09T05:24:28.321Z,978.88
2019-05-09T05:25:28.114Z,979.00
2019-05-09T05:26:28.341Z,979.08
2019-05-09T05:27:28.522Z,979.16
2019-05-09T05:28:50.325Z,979.25
2019-05-09T05:29:28.933Z,979.29
2019-05-09T05:30:29.809Z,979.34
2019-05-09T05:31:29.823Z,979.29
2019-05-09T05:32:29.500Z,979.39
2019-05-09T05:33:29.739Z,979.36
2019-05-09T05:34:29.919Z,979.37
2019-05-09T05:35:30.058Z,979.44
2019-05-09T05:36:30.811Z,979.43
2019-05-09T05:37:30.457Z,979.45
2019-05-09T05:38:30.637Z,979.35
2019-05-09T05:39:30.770Z,979.37
2019-05-09T05:40:33.685Z,979.39
2019-05-09T05:41:32.120Z,979.17
2019-05-09T05:42:31.368Z,979.13
2019-05-09T05:43:41.612Z,979.06
2019-05-09T05:44:34.315Z,978.91
2019-05-09T05:45:31.914Z,978.70
2019-05-09T05:46:32.053Z,978.23
2019-05-09T05:47:32.204Z,978.28
2019-05-09T05:48:33.319Z,978.41
2019-05-09T05:49:32.568Z,978.59
2019-05-09T05:50:32.742Z,978.59
2019-05-09T05:51:32.913Z,978.68
2019-05-09T05:52:33.062Z,978.71
2019-05-09T05:53:33.256Z,978.75
2019-05-09T05:54:33.417Z,978.77
2019-05-09T05:55:34.310Z,978.83
2019-05-09T05:56:33.687Z,978.89
2019-05-09T05:57:33.836Z,978.94
2019-05-09T05:58:34.329Z,978.83
2019-05-09T05:59:37.308Z,978.89
2019-05-09T06:00:37.615Z,978.84
2019-05-09T06:01:34.633Z,978.91
2019-05-09T06:02:34.783Z,978.96
2019-05-09T06:03:34.899Z,978.94
2019-05-09T06:04:35.028Z,979.10
2019-05-09T06:05:35.169Z,979.03
2019-05-09T06:06:37.353Z,979.13
2019-05-09T06:07:37.643Z,979.15
2019-05-09T06:08:37.902Z,979.15
2019-05-09T06:09:37.981Z,979.07
2019-05-09T06:10:37.772Z,979.01
2019-05-09T06:11:38.446Z,979.03
2019-05-09T06:12:38.125Z,979.08
2019-05-09T06:13:38.003Z,979.07
2019-05-09T06:14:38.056Z,978.98
2019-05-09T06:15:38.139Z,978.97
2019-05-09T06:16:37.818Z,978.93
2019-05-09T06:17:38.408Z,978.93
2019-05-09T06:18:38.441Z,978.92
2019-05-09T06:19:38.725Z,978.96
2019-05-09T06:20:38.842Z,978.94
2019-05-09T06:21:38.125Z,979.01
2019-05-09T06:22:38.359Z,978.95
2019-05-09T06:23:38.520Z,978.84
2019-05-09T06:24:39.002Z,978.84
2019-05-09T06:25:40.332Z,978.76
2019-05-09T06:26:39.815Z,978.74
2019-05-09T06:27:42.197Z,978.72
2019-05-09T06:28:39.443Z,978.70
2019-05-09T06:29:40.334Z,978.68
2019-05-09T06:30:41.138Z,978.66
2019-05-09T06:31:40.880Z,978.50
2019-05-09T06:32:40.015Z,978.44
2019-05-09T06:33:46.641Z,978.19
2019-05-09T06:34:42.390Z,978.18
2019-05-09T06:35:41.484Z,978.14
2019-05-09T06:36:40.599Z,978.04
2019-05-09T06:37:40.769Z,977.98
2019-05-09T06:38:40.917Z,977.78
2019-05-09T06:39:41.083Z,977.92
2019-05-09T06:40:41.273Z,977.88
2019-05-09T06:41:41.381Z,977.86
2019-05-09T06:42:41.556Z,977.71
2019-05-09T06:43:41.752Z,977.88
2019-05-09T06:44:41.908Z,978.00
2019-05-09T06:45:42.072Z,978.21
2019-05-09T06:46:42.245Z,978.23
2019-05-09T06:47:42.431Z,978.38
2019-05-09T06:48:42.613Z,978.48
2019-05-09T06:49:42.785Z,978.30
2019-05-09T06:50:43.832Z,978.11
2019-05-09T06:51:43.096Z,978.04
2019-05-09T06:52:43.280Z,977.98
2019-05-09T06:53:43.476Z,977.91
2019-05-09T06:54:43.703Z,977.79
2019-05-09T06:55:43.788Z,977.82
2019-05-09T06:56:43.974Z,977.76
2019-05-09T06:57:44.152Z,977.72
2019-05-09T06:58:44.340Z,977.71
2019-05-09T06:59:44.514Z,977.72
2019-05-09T07:00:45.335Z,977.69
2019-05-09T07:01:44.822Z,977.67
2019-05-09T07:02:47.889Z,977.69
2019-05-09T07:03:45.175Z,977.67
2019-05-09T07:04:47.476Z,977.66
2019-05-09T07:05:45.499Z,977.72
2019-05-09T07:06:48.104Z,977.75
2019-05-09T07:08:04.713Z,977.70
2019-05-09T07:08:47.673Z,977.63
2019-05-09T07:09:47.904Z,977.64
2019-05-09T07:10:48.360Z,977.68
2019-05-09T07:11:48.642Z,977.72
2019-05-09T07:12:48.656Z,977.64
2019-05-09T07:13:47.881Z,977.60
2019-05-09T07:14:48.742Z,977.49
2019-05-09T07:15:48.284Z,977.58
2019-05-09T07:16:48.405Z,977.55
2019-05-09T07:17:48.197Z,977.51
2019-05-09T07:18:49.346Z,977.54
2019-05-09T07:19:48.872Z,977.40
2019-05-09T07:20:49.175Z,977.35
2019-05-09T07:21:48.557Z,977.36
2019-05-09T07:22:49.494Z,977.42
2019-05-09T07:23:48.620Z,977.34
2019-05-09T07:24:49.335Z,977.34
2019-05-09T07:25:49.020Z,977.27
2019-05-09T07:26:49.219Z,977.28
2019-05-09T07:27:49.385Z,977.26
2019-05-09T07:28:49.558Z,977.34
2019-05-09T07:29:49.782Z,977.25
2019-05-09T07:30:49.914Z,977.37
2019-05-09T07:31:50.106Z,977.27
2019-05-09T07:32:50.280Z,977.22
2019-05-09T07:33:50.452Z,977.26
2019-05-09T07:34:50.632Z,977.36
2019-05-09T07:35:50.782Z,977.28
2019-05-09T07:36:50.972Z,977.03
2019-05-09T07:37:51.151Z,977.19
2019-05-09T07:38:51.340Z,977.26
2019-05-09T07:39:52.352Z,977.39
2019-05-09T07:40:51.646Z,977.42
2019-05-09T07:41:51.807Z,977.45
2019-05-09T07:42:51.998Z,977.36
2019-05-09T07:43:52.177Z,977.48
2019-05-09T07:44:52.625Z,977.43
2019-05-09T07:45:53.585Z,977.59
2019-05-09T07:46:52.751Z,977.62
2019-05-09T07:47:52.905Z,977.61
2019-05-09T07:48:53.079Z,977.60
2019-05-09T07:49:53.866Z,977.69
2019-05-09T07:50:53.382Z,977.48
2019-05-09T07:51:53.582Z,977.36
2019-05-09T07:52:53.753Z,977.39
2019-05-09T07:53:53.904Z,977.22
2019-05-09T07:54:54.093Z,977.22
2019-05-09T07:55:54.248Z,977.26
2019-05-09T07:56:54.438Z,977.23
2019-05-09T07:57:55.618Z,977.18
2019-05-09T07:58:55.721Z,977.14
2019-05-09T07:59:54.973Z,977.18
2019-05-09T08:00:59.133Z,977.02
2019-05-09T08:01:58.115Z,977.17
2019-05-09T08:02:55.472Z,977.12
2019-05-09T08:03:58.145Z,977.20
2019-05-09T08:04:57.897Z,977.25
2019-05-09T08:05:57.981Z,977.07
2019-05-09T08:06:57.764Z,977.11
2019-05-09T08:07:58.591Z,977.20
2019-05-09T08:08:58.306Z,977.05
2019-05-09T08:09:58.006Z,977.08
2019-05-09T08:10:58.508Z,977.12
2019-05-09T08:11:58.727Z,977.06
2019-05-09T08:12:58.705Z,977.05
2019-05-09T08:13:58.872Z,976.88
2019-05-09T08:15:08.591Z,976.96
2019-05-09T08:15:59.703Z,976.93
2019-05-09T08:16:58.241Z,976.93
2019-05-09T08:17:59.445Z,976.97
2019-05-09T08:18:58.213Z,976.96
2019-05-09T08:19:59.387Z,976.90
2019-05-09T08:20:58.529Z,976.93
2019-05-09T08:21:58.724Z,976.90
2019-05-09T08:23:02.173Z,977.02
2019-05-09T08:23:59.092Z,976.88
2019-05-09T08:24:59.260Z,977.03
2019-05-09T08:26:04.329Z,976.99
2019-05-09T08:26:59.563Z,977.01
2019-05-09T08:27:59.720Z,976.99
2019-05-09T08:28:59.883Z,976.90
2019-05-09T08:30:00.038Z,977.00
2019-05-09T08:31:00.199Z,976.95
2019-05-09T08:32:00.349Z,976.98
2019-05-09T08:33:00.537Z,976.87
2019-05-09T08:34:00.724Z,976.92
2019-05-09T08:35:00.879Z,976.82
2019-05-09T08:36:01.028Z,976.84
2019-05-09T08:37:01.198Z,976.80
2019-05-09T08:38:01.356Z,976.91
2019-05-09T08:39:01.522Z,976.92
2019-05-09T08:40:01.700Z,976.83
2019-05-09T08:41:01.890Z,976.84
2019-05-09T08:42:02.025Z,976.91
2019-05-09T08:43:02.194Z,976.93
2019-05-09T08:44:02.360Z,976.94
2019-05-09T08:45:02.537Z,976.93
2019-05-09T08:46:02.747Z,976.99
2019-05-09T08:47:02.905Z,976.89
2019-05-09T08:48:03.068Z,976.98
2019-05-09T08:49:03.230Z,976.93
2019-05-09T08:50:04.377Z,977.08
2019-05-09T08:51:03.638Z,977.08
2019-05-09T08:52:12.685Z,976.96
2019-05-09T08:53:08.018Z,976.94
2019-05-09T08:54:04.230Z,976.91
2019-05-09T08:55:05.389Z,977.11
2019-05-09T08:56:04.675Z,976.92
2019-05-09T08:57:06.967Z,977.00
2019-05-09T08:58:05.007Z,977.00
2019-05-09T08:59:08.084Z,976.95
2019-05-09T09:00:05.408Z,977.00
2019-05-09T09:01:08.820Z,977.05
2019-05-09T09:02:14.803Z,977.08
2019-05-09T09:03:08.198Z,977.10
2019-05-09T09:04:08.099Z,977.06
2019-05-09T09:05:08.735Z,977.09
2019-05-09T09:06:08.258Z,977.00
2019-05-09T09:07:08.552Z,976.97
2019-05-09T09:08:08.517Z,977.01
2019-05-09T09:09:08.228Z,976.96
2019-05-09T09:10:08.662Z,976.98
2019-05-09T09:11:08.738Z,976.95
2019-05-09T09:12:24.750Z,977.01
2019-05-09T09:13:09.660Z,976.91
2019-05-09T09:14:08.897Z,976.92
2019-05-09T09:15:08.031Z,976.84
2019-05-09T09:16:18.374Z,976.90
2019-05-09T09:17:10.327Z,976.97
2019-05-09T09:18:08.915Z,976.93
2019-05-09T09:19:09.750Z,976.91
2019-05-09T09:20:08.995Z,977.00
2019-05-09T09:21:09.152Z,977.02
2019-05-09T09:22:09.295Z,977.09
2019-05-09T09:23:09.510Z,977.06
2019-05-09T09:24:09.659Z,977.10
2019-05-09T09:25:09.819Z,977.15
2019-05-09T09:26:10.963Z,977.18
2019-05-09T09:27:11.192Z,977.22
2019-05-09T09:28:11.394Z,977.23
2019-05-09T09:29:10.632Z,977.36
2019-05-09T09:30:20.424Z,977.36
2019-05-09T09:31:13.009Z,977.32
2019-05-09T09:32:11.898Z,977.18
2019-05-09T09:33:13.979Z,977.27
2019-05-09T09:34:12.910Z,977.24
2019-05-09T09:35:11.652Z,977.18
2019-05-09T09:36:11.848Z,977.21
2019-05-09T09:37:12.016Z,977.21
2019-05-09T09:38:12.154Z,977.27
2019-05-09T09:39:12.284Z,977.30
2019-05-09T09:40:12.452Z,977.33
2019-05-09T09:41:12.637Z,977.32
2019-05-09T09:42:12.818Z,977.46
2019-05-09T09:43:12.954Z,977.57
2019-05-09T09:44:13.126Z,977.50
2019-05-09T09:45:13.289Z,977.53
2019-05-09T09:46:14.804Z,977.63
2019-05-09T09:47:20.582Z,977.61
2019-05-09T09:48:17.978Z,977.60
2019-05-09T09:49:13.911Z,977.63
2019-05-09T09:50:14.060Z,977.66
2019-05-09T09:51:14.202Z,977.59
2019-05-09T09:52:14.350Z,977.62
2019-05-09T09:53:14.524Z,977.62
2019-05-09T09:54:14.692Z,977.53
2019-05-09T09:55:14.862Z,977.57
2019-05-09T09:56:17.655Z,977.57
2019-05-09T09:57:15.179Z,977.64
2019-05-09T09:58:15.362Z,977.59
2019-05-09T09:59:15.518Z,977.66
2019-05-09T10:00:17.958Z,977.64
2019-05-09T10:01:18.076Z,977.67
2019-05-09T10:02:16.082Z,977.66
2019-05-09T10:03:18.515Z,977.60
2019-05-09T10:04:23.099Z,977.52
2019-05-09T10:05:18.615Z,977.53
2019-05-09T10:06:32.412Z,977.45
2019-05-09T10:07:18.928Z,977.56
2019-05-09T10:08:18.190Z,977.50
2019-05-09T10:09:18.032Z,977.48
2019-05-09T10:10:18.467Z,977.51
2019-05-09T10:11:18.420Z,977.50
2019-05-09T10:12:18.226Z,977.54
2019-05-09T10:13:18.788Z,977.51
2019-05-09T10:14:18.626Z,977.53
2019-05-09T10:15:19.147Z,977.50
2019-05-09T10:16:29.121Z,977.54
2019-05-09T10:17:21.600Z,977.56
2019-05-09T10:18:19.521Z,977.59
2019-05-09T10:19:18.733Z,977.63
2019-05-09T10:20:18.800Z,977.61
2019-05-09T10:21:18.988Z,977.78
2019-05-09T10:22:23.646Z,977.66
2019-05-09T10:23:21.733Z,977.69
2019-05-09T10:24:20.458Z,977.75
2019-05-09T10:25:19.577Z,977.83
2019-05-09T10:26:19.764Z,977.79
2019-05-09T10:27:19.925Z,977.83
2019-05-09T10:28:21.663Z,977.84
2019-05-09T10:29:21.249Z,977.91
2019-05-09T10:30:20.916Z,977.95
2019-05-09T10:31:21.932Z,977.95
2019-05-09T10:32:20.696Z,977.96
2019-05-09T10:33:20.926Z,978.05
2019-05-09T10:34:21.915Z,978.14
2019-05-09T10:35:21.328Z,978.10
2019-05-09T10:36:21.520Z,978.12
2019-05-09T10:37:21.693Z,978.22
2019-05-09T10:38:21.889Z,978.17
2019-05-09T10:39:22.061Z,978.21
2019-05-09T10:40:22.263Z,978.21
2019-05-09T10:41:22.477Z,978.27
2019-05-09T10:42:22.676Z,978.20
2019-05-09T10:43:34.427Z,978.20
2019-05-09T10:44:23.996Z,978.15
2019-05-09T10:45:23.186Z,978.17
2019-05-09T10:46:23.433Z,978.16
2019-05-09T10:47:23.640Z,978.10
2019-05-09T10:48:24.173Z,978.01
2019-05-09T10:49:24.986Z,978.05
2019-05-09T10:50:24.130Z,978.01
2019-05-09T10:51:24.345Z,978.00
2019-05-09T10:52:24.564Z,977.91
2019-05-09T10:53:24.738Z,977.92
2019-05-09T10:54:24.900Z,977.88
2019-05-09T10:55:25.074Z,977.85
2019-05-09T10:56:27.847Z,977.95
2019-05-09T10:57:30.903Z,977.87
2019-05-09T10:58:27.995Z,977.85
2019-05-09T10:59:25.807Z,977.90
2019-05-09T11:00:25.957Z,977.74
2019-05-09T11:01:28.671Z,977.78
2019-05-09T11:02:27.966Z,977.82
2019-05-09T11:03:27.449Z,977.78
2019-05-09T11:04:28.627Z,977.91
2019-05-09T11:05:27.722Z,977.80
2019-05-09T11:06:28.847Z,977.70
2019-05-09T11:07:29.093Z,977.79
2019-05-09T11:08:28.715Z,977.84
2019-05-09T11:09:29.229Z,977.82
2019-05-09T11:10:32.566Z,977.67
2019-05-09T11:11:29.040Z,977.65
2019-05-09T11:12:28.058Z,977.74
2019-05-09T11:13:28.932Z,977.67
2019-05-09T11:14:36.455Z,977.69
2019-05-09T11:15:30.611Z,977.71
2019-05-09T11:16:42.051Z,977.70
2019-05-09T11:17:30.911Z,977.74
2019-05-09T11:18:29.037Z,977.82
2019-05-09T11:19:29.210Z,977.84
2019-05-09T11:20:29.399Z,977.85
2019-05-09T11:21:29.591Z,977.86
2019-05-09T11:22:29.837Z,977.91
2019-05-09T11:23:30.018Z,977.89
2019-05-09T11:24:41.175Z,978.03
2019-05-09T11:25:32.940Z,978.04
2019-05-09T11:26:30.454Z,978.07
2019-05-09T11:27:30.944Z,978.17
2019-05-09T11:28:30.893Z,978.22
2019-05-09T11:29:31.087Z,978.19
2019-05-09T11:30:31.266Z,978.25
2019-05-09T11:31:31.430Z,978.26
2019-05-09T11:32:32.605Z,978.30
2019-05-09T11:33:31.775Z,978.31
2019-05-09T11:34:31.975Z,978.32
2019-05-09T11:35:32.130Z,978.41
2019-05-09T11:36:32.300Z,978.45
2019-05-09T11:37:33.439Z,978.48
2019-05-09T11:38:38.097Z,978.50
2019-05-09T11:39:39.032Z,978.55
2019-05-09T11:40:37.669Z,978.54
2019-05-09T11:41:33.210Z,978.66
2019-05-09T11:42:33.637Z,978.67
2019-05-09T11:43:34.567Z,978.70
2019-05-09T11:44:34.476Z,978.75
2019-05-09T11:45:33.863Z,978.76
2019-05-09T11:46:34.036Z,978.82
2019-05-09T11:47:42.584Z,978.80
2019-05-09T11:48:38.157Z,978.82
2019-05-09T11:49:34.470Z,978.83
2019-05-09T11:50:34.633Z,978.78
2019-05-09T11:51:34.774Z,978.86
2019-05-09T11:52:34.960Z,978.80
2019-05-09T11:53:35.103Z,978.78
2019-05-09T11:54:35.457Z,978.78
2019-05-09T11:55:37.789Z,978.80
2019-05-09T11:56:38.382Z,978.73
2019-05-09T11:57:38.176Z,978.76
2019-05-09T11:58:37.968Z,978.79
2019-05-09T11:59:37.967Z,978.69
2019-05-09T12:00:38.117Z,978.74
2019-05-09T12:01:39.679Z,978.77
2019-05-09T12:02:38.535Z,978.77
2019-05-09T12:03:38.903Z,978.79
2019-05-09T12:04:38.074Z,978.74
2019-05-09T12:05:38.086Z,978.81
2019-05-09T12:06:38.324Z,978.80
2019-05-09T12:07:38.444Z,978.85
2019-05-09T12:08:38.771Z,978.85
2019-05-09T12:09:39.455Z,978.74
2019-05-09T12:10:38.326Z,978.76
2019-05-09T12:11:43.958Z,978.80
2019-05-09T12:12:40.366Z,978.81
2019-05-09T12:13:39.587Z,978.73
2019-05-09T12:14:38.830Z,978.74
2019-05-09T12:15:39.196Z,978.65
2019-05-09T12:16:40.241Z,978.64
2019-05-09T12:17:51.034Z,978.69
2019-05-09T12:18:42.448Z,978.68
2019-05-09T12:19:40.790Z,978.71
2019-05-09T12:20:40.050Z,978.76
2019-05-09T12:21:47.461Z,978.75
2019-05-09T12:22:42.345Z,978.71
2019-05-09T12:23:40.565Z,978.70
2019-05-09T12:24:40.697Z,978.70
2019-05-09T12:25:40.897Z,978.75
2019-05-09T12:26:41.045Z,978.71
2019-05-09T12:27:42.195Z,978.76
2019-05-09T12:28:41.463Z,978.72
2019-05-09T12:29:42.459Z,978.77
2019-05-09T12:30:41.848Z,978.79